Fargo, ND (58103)

3:26 PM CST on November 25, 2014 (GMT -0600)
KNDFARGO12 | Change Station
CLOSE
Current Station
Personal Weather Station
Location: Fargo, ND
Elevation: 901 ft
Nearby Weather Stations
Active Advisory: Winter Weather Advisory Active Notice: Public Information Statement

Elev 901 ft 46.87 °N, 96.86 °W | Updated 88 days ago

Snow
Snow
25 °F
Feels Like 16 °F
N
10
Wind Variable Wind from ESE
Gusts 14 mph

Today
High -- | Low -- °F
--% Chance of Precip.
Yesterday
High -- | Low -- °F
Precip. -- in
7:44 AM 4:44 PM
Waxing Crescent, 14% visible
Pressure 29.91 in
Visibility 10.0 miles
Clouds Overcast 2900 ft
Windchill 16 °F
Dew Point 18 °F
Humidity 76%
Rainfall 0.00 in
Snow Depth Not available.
UV 0 out of 12
Pollen .10 out of 12
Air Quality Not available.
Flu Activity Not available.
SPECI KFAR 252100Z 13010KT 10SM OVC029 M03/M08 A2991 RMK AO2 T10281078

More Conditions Fewer Conditions

Pressure 29.91 in
Visibility 10.0 miles
Clouds Overcast 2900 ft
Windchill 16 °F
Dew Point 18 °F
Humidity 76%
Rainfall 0.00 in
Snow Depth Not available.
UV 0 out of 12
Pollen .10 out of 12
Air Quality Not available.
Flu Activity Not available.
SPECI KFAR 252100Z 13010KT 10SM OVC029 M03/M08 A2991 RMK AO2 T10281078

More Conditions Fewer Conditions

10-Day Weather Forecast

Almanac

Astronomy

Nov. 25, 2014 Rise Set
Actual Time
Civil Twilight
Nautical Twilight
Astronomical Twilight
Moon
Length of Visible Light
Length of Day
Tomorrow will be .
, % of the Moon is Illuminated

Today's Extremes

State Highs State Lows

Community

WunderPhotos

Upload Photos

1,773,592 photos uploaded!

WunderBlogs® & News

Nearby

Air Quality

  Air Quality AQ Index Pollutant
Not available.

Snow Depth

Station Depth Elevation

Earthquake Activity

City Distance Mag. Time & Date
Minimum magnitude displayed is 2.5.

Coastal Water Temperatures

Place Temperature

Nearby Weather Stations